sensor_id;sensor_type;location;lat;lon;timestamp;P1;durP1;ratioP1;P2;durP2;ratioP2
6580;SDS011;3324;50.796;7.228;2022-09-09T00:00:24;11.60;;;11.00;;
6580;SDS011;3324;50.796;7.228;2022-09-09T00:08:21;11.40;;;10.90;;
6580;SDS011;3324;50.796;7.228;2022-09-09T00:10:56;11.20;;;10.70;;
6580;SDS011;3324;50.796;7.228;2022-09-09T00:13:34;11.10;;;10.60;;
6580;SDS011;3324;50.796;7.228;2022-09-09T00:16:19;11.20;;;10.60;;
6580;SDS011;3324;50.796;7.228;2022-09-09T00:21:43;10.60;;;10.30;;
6580;SDS011;3324;50.796;7.228;2022-09-09T00:24:41;10.10;;;9.80;;
6580;SDS011;3324;50.796;7.228;2022-09-09T00:27:08;9.90;;;9.60;;
6580;SDS011;3324;50.796;7.228;2022-09-09T00:29:51;9.80;;;9.50;;
6580;SDS011;3324;50.796;7.228;2022-09-09T00:32:20;10.50;;;10.00;;
6580;SDS011;3324;50.796;7.228;2022-09-09T00:37:43;10.40;;;10.10;;
6580;SDS011;3324;50.796;7.228;2022-09-09T00:40:17;11.00;;;10.60;;
6580;SDS011;3324;50.796;7.228;2022-09-09T00:42:54;11.80;;;11.10;;
6580;SDS011;3324;50.796;7.228;2022-09-09T00:45:57;11.50;;;10.90;;
6580;SDS011;3324;50.796;7.228;2022-09-09T00:51:40;10.77;;;10.37;;
6580;SDS011;3324;50.796;7.228;2022-09-09T00:57:05;12.10;;;11.40;;
6580;SDS011;3324;50.796;7.228;2022-09-09T00:59:52;11.90;;;11.20;;
6580;SDS011;3324;50.796;7.228;2022-09-09T01:02:45;11.90;;;11.20;;
6580;SDS011;3324;50.796;7.228;2022-09-09T01:11:10;11.57;;;10.97;;
6580;SDS011;3324;50.796;7.228;2022-09-09T01:13:45;9.70;;;9.40;;
6580;SDS011;3324;50.796;7.228;2022-09-09T01:16:18;8.60;;;8.40;;
6580;SDS011;3324;50.796;7.228;2022-09-09T01:18:44;10.05;;;9.75;;
6580;SDS011;3324;50.796;7.228;2022-09-09T01:21:17;10.20;;;9.90;;
6580;SDS011;3324;50.796;7.228;2022-09-09T01:26:56;10.00;;;9.70;;
6580;SDS011;3324;50.796;7.228;2022-09-09T01:29:26;11.60;;;10.90;;
6580;SDS011;3324;50.796;7.228;2022-09-09T01:32:53;11.50;;;10.80;;
6580;SDS011;3324;50.796;7.228;2022-09-09T01:35:11;11.70;;;11.10;;
6580;SDS011;3324;50.796;7.228;2022-09-09T01:37:43;11.80;;;11.20;;
6580;SDS011;3324;50.796;7.228;2022-09-09T01:40:08;12.40;;;11.60;;
6580;SDS011;3324;50.796;7.228;2022-09-09T01:42:34;11.80;;;11.20;;
6580;SDS011;3324;50.796;7.228;2022-09-09T01:45:00;11.80;;;11.20;;
6580;SDS011;3324;50.796;7.228;2022-09-09T01:47:25;12.00;;;11.40;;
6580;SDS011;3324;50.796;7.228;2022-09-09T01:49:51;12.50;;;11.60;;
6580;SDS011;3324;50.796;7.228;2022-09-09T01:52:17;11.80;;;11.20;;
6580;SDS011;3324;50.796;7.228;2022-09-09T01:54:42;11.80;;;11.20;;
6580;SDS011;3324;50.796;7.228;2022-09-09T02:00:02;11.80;;;11.20;;
6580;SDS011;3324;50.796;7.228;2022-09-09T02:02:36;12.20;;;11.50;;
6580;SDS011;3324;50.796;7.228;2022-09-09T02:05:38;12.30;;;11.50;;
6580;SDS011;3324;50.796;7.228;2022-09-09T02:08:08;11.60;;;11.00;;
6580;SDS011;3324;50.796;7.228;2022-09-09T02:10:59;11.60;;;11.00;;
6580;SDS011;3324;50.796;7.228;2022-09-09T02:13:34;11.90;;;11.30;;
6580;SDS011;3324;50.796;7.228;2022-09-09T02:16:22;11.80;;;11.20;;
6580;SDS011;3324;50.796;7.228;2022-09-09T02:19:23;11.90;;;11.30;;
6580;SDS011;3324;50.796;7.228;2022-09-09T02:21:56;11.80;;;11.20;;
6580;SDS011;3324;50.796;7.228;2022-09-09T02:24:24;12.70;;;11.80;;
6580;SDS011;3324;50.796;7.228;2022-09-09T02:26:51;11.80;;;11.20;;
6580;SDS011;3324;50.796;7.228;2022-09-09T02:29:24;11.70;;;11.10;;
6580;SDS011;3324;50.796;7.228;2022-09-09T02:31:52;11.80;;;11.20;;
6580;SDS011;3324;50.796;7.228;2022-09-09T02:34:23;11.70;;;11.10;;
6580;SDS011;3324;50.796;7.228;2022-09-09T02:36:52;11.40;;;10.90;;
6580;SDS011;3324;50.796;7.228;2022-09-09T02:39:20;11.60;;;11.00;;
6580;SDS011;3324;50.796;7.228;2022-09-09T02:41:45;11.30;;;10.80;;
6580;SDS011;3324;50.796;7.228;2022-09-09T02:44:13;10.60;;;10.20;;
6580;SDS011;3324;50.796;7.228;2022-09-09T02:46:56;11.50;;;11.00;;
6580;SDS011;3324;50.796;7.228;2022-09-09T02:49:28;11.40;;;10.90;;
6580;SDS011;3324;50.796;7.228;2022-09-09T02:52:14;12.30;;;11.50;;
6580;SDS011;3324;50.796;7.228;2022-09-09T02:54:43;11.50;;;11.00;;
6580;SDS011;3324;50.796;7.228;2022-09-09T02:57:17;11.40;;;10.90;;
6580;SDS011;3324;50.796;7.228;2022-09-09T02:59:47;11.30;;;10.80;;
6580;SDS011;3324;50.796;7.228;2022-09-09T03:02:14;11.05;;;10.65;;
6580;SDS011;3324;50.796;7.228;2022-09-09T03:04:40;11.30;;;10.80;;
6580;SDS011;3324;50.796;7.228;2022-09-09T03:07:09;11.00;;;10.60;;
6580;SDS011;3324;50.796;7.228;2022-09-09T03:09:35;9.90;;;9.60;;
6580;SDS011;3324;50.796;7.228;2022-09-09T03:12:01;10.70;;;10.20;;
6580;SDS011;3324;50.796;7.228;2022-09-09T03:14:29;11.00;;;10.60;;
6580;SDS011;3324;50.796;7.228;2022-09-09T03:16:55;10.80;;;10.40;;
6580;SDS011;3324;50.796;7.228;2022-09-09T03:19:23;11.00;;;10.60;;
6580;SDS011;3324;50.796;7.228;2022-09-09T03:21:49;10.90;;;10.50;;
6580;SDS011;3324;50.796;7.228;2022-09-09T03:24:15;10.80;;;10.40;;
6580;SDS011;3324;50.796;7.228;2022-09-09T03:26:41;10.20;;;9.90;;
6580;SDS011;3324;50.796;7.228;2022-09-09T03:29:09;11.55;;;10.95;;
6580;SDS011;3324;50.796;7.228;2022-09-09T03:31:37;10.90;;;10.50;;
6580;SDS011;3324;50.796;7.228;2022-09-09T03:34:03;11.10;;;10.70;;
6580;SDS011;3324;50.796;7.228;2022-09-09T03:36:28;11.77;;;11.07;;
6580;SDS011;3324;50.796;7.228;2022-09-09T03:38:55;11.40;;;10.90;;
6580;SDS011;3324;50.796;7.228;2022-09-09T03:41:21;11.40;;;10.90;;
6580;SDS011;3324;50.796;7.228;2022-09-09T03:43:49;12.10;;;11.40;;
6580;SDS011;3324;50.796;7.228;2022-09-09T03:46:16;11.50;;;11.00;;
6580;SDS011;3324;50.796;7.228;2022-09-09T03:48:42;11.60;;;11.00;;
6580;SDS011;3324;50.796;7.228;2022-09-09T03:51:07;12.20;;;11.40;;
6580;SDS011;3324;50.796;7.228;2022-09-09T03:53:33;11.60;;;11.00;;
6580;SDS011;3324;50.796;7.228;2022-09-09T03:55:59;11.60;;;11.00;;
6580;SDS011;3324;50.796;7.228;2022-09-09T03:58:25;11.50;;;10.90;;
6580;SDS011;3324;50.796;7.228;2022-09-09T04:00:58;11.77;;;11.17;;
6580;SDS011;3324;50.796;7.228;2022-09-09T04:03:26;11.95;;;11.15;;
6580;SDS011;3324;50.796;7.228;2022-09-09T04:05:52;11.60;;;11.00;;
6580;SDS011;3324;50.796;7.228;2022-09-09T04:08:19;11.65;;;11.05;;
6580;SDS011;3324;50.796;7.228;2022-09-09T04:10:47;12.30;;;11.50;;
6580;SDS011;3324;50.796;7.228;2022-09-09T04:13:14;11.50;;;10.90;;
6580;SDS011;3324;50.796;7.228;2022-09-09T04:15:41;11.60;;;11.00;;
6580;SDS011;3324;50.796;7.228;2022-09-09T04:18:07;11.50;;;10.90;;
6580;SDS011;3324;50.796;7.228;2022-09-09T04:20:32;11.60;;;11.00;;
6580;SDS011;3324;50.796;7.228;2022-09-09T04:22:58;12.20;;;11.40;;
6580;SDS011;3324;50.796;7.228;2022-09-09T04:25:24;11.50;;;10.90;;
6580;SDS011;3324;50.796;7.228;2022-09-09T04:27:55;11.35;;;10.85;;
6580;SDS011;3324;50.796;7.228;2022-09-09T04:30:22;11.60;;;11.00;;
6580;SDS011;3324;50.796;7.228;2022-09-09T04:32:48;11.60;;;11.00;;
6580;SDS011;3324;50.796;7.228;2022-09-09T04:35:14;12.20;;;11.40;;
6580;SDS011;3324;50.796;7.228;2022-09-09T04:37:40;12.50;;;11.70;;
6580;SDS011;3324;50.796;7.228;2022-09-09T04:40:06;12.60;;;11.70;;
6580;SDS011;3324;50.796;7.228;2022-09-09T04:42:38;11.80;;;11.20;;
6580;SDS011;3324;50.796;7.228;2022-09-09T04:45:04;11.83;;;11.23;;
6580;SDS011;3324;50.796;7.228;2022-09-09T04:47:32;12.20;;;11.50;;
6580;SDS011;3324;50.796;7.228;2022-09-09T04:50:00;11.80;;;11.20;;
6580;SDS011;3324;50.796;7.228;2022-09-09T04:52:26;11.65;;;11.05;;
6580;SDS011;3324;50.796;7.228;2022-09-09T04:54:52;12.60;;;11.70;;
6580;SDS011;3324;50.796;7.228;2022-09-09T04:57:19;13.00;;;12.05;;
6580;SDS011;3324;50.796;7.228;2022-09-09T04:59:44;13.10;;;12.10;;
6580;SDS011;3324;50.796;7.228;2022-09-09T05:02:11;12.20;;;11.50;;
6580;SDS011;3324;50.796;7.228;2022-09-09T05:04:36;12.30;;;11.60;;
6580;SDS011;3324;50.796;7.228;2022-09-09T05:07:02;12.30;;;11.60;;
6580;SDS011;3324;50.796;7.228;2022-09-09T05:09:27;12.90;;;12.00;;
6580;SDS011;3324;50.796;7.228;2022-09-09T05:11:54;12.10;;;11.40;;
6580;SDS011;3324;50.796;7.228;2022-09-09T05:14:20;12.90;;;12.00;;
6580;SDS011;3324;50.796;7.228;2022-09-09T05:16:46;12.20;;;11.50;;
6580;SDS011;3324;50.796;7.228;2022-09-09T05:19:14;12.70;;;11.80;;
6580;SDS011;3324;50.796;7.228;2022-09-09T05:21:40;12.90;;;12.00;;
6580;SDS011;3324;50.796;7.228;2022-09-09T05:24:06;12.10;;;11.40;;
6580;SDS011;3324;50.796;7.228;2022-09-09T05:26:32;12.10;;;11.40;;
6580;SDS011;3324;50.796;7.228;2022-09-09T05:28:58;12.30;;;11.60;;
6580;SDS011;3324;50.796;7.228;2022-09-09T05:31:25;11.90;;;11.30;;
6580;SDS011;3324;50.796;7.228;2022-09-09T05:33:53;12.50;;;11.60;;
6580;SDS011;3324;50.796;7.228;2022-09-09T05:36:19;11.40;;;10.90;;
6580;SDS011;3324;50.796;7.228;2022-09-09T05:38:46;12.20;;;11.40;;
6580;SDS011;3324;50.796;7.228;2022-09-09T05:41:14;11.60;;;11.00;;
6580;SDS011;3324;50.796;7.228;2022-09-09T05:43:40;11.30;;;10.80;;
6580;SDS011;3324;50.796;7.228;2022-09-09T05:46:10;11.50;;;11.00;;
6580;SDS011;3324;50.796;7.228;2022-09-09T05:48:41;11.80;;;11.20;;
6580;SDS011;3324;50.796;7.228;2022-09-09T05:51:11;12.65;;;11.75;;
6580;SDS011;3324;50.796;7.228;2022-09-09T05:53:40;12.60;;;11.70;;
6580;SDS011;3324;50.796;7.228;2022-09-09T05:58:37;12.10;;;11.40;;
6580;SDS011;3324;50.796;7.228;2022-09-09T06:01:04;12.30;;;11.60;;
6580;SDS011;3324;50.796;7.228;2022-09-09T06:03:33;12.80;;;11.90;;
6580;SDS011;3324;50.796;7.228;2022-09-09T06:06:04;12.10;;;11.40;;
6580;SDS011;3324;50.796;7.228;2022-09-09T06:08:32;12.80;;;11.90;;
6580;SDS011;3324;50.796;7.228;2022-09-09T06:11:02;12.10;;;11.40;;
6580;SDS011;3324;50.796;7.228;2022-09-09T06:13:29;12.20;;;11.50;;
6580;SDS011;3324;50.796;7.228;2022-09-09T06:15:55;11.70;;;11.10;;
6580;SDS011;3324;50.796;7.228;2022-09-09T06:18:21;11.80;;;11.20;;
6580;SDS011;3324;50.796;7.228;2022-09-09T06:20:54;11.90;;;11.30;;
6580;SDS011;3324;50.796;7.228;2022-09-09T06:23:20;11.90;;;11.30;;
6580;SDS011;3324;50.796;7.228;2022-09-09T06:25:46;12.00;;;11.30;;
6580;SDS011;3324;50.796;7.228;2022-09-09T06:28:12;12.70;;;11.80;;
6580;SDS011;3324;50.796;7.228;2022-09-09T06:30:38;12.70;;;11.80;;
6580;SDS011;3324;50.796;7.228;2022-09-09T06:33:04;12.85;;;11.95;;
6580;SDS011;3324;50.796;7.228;2022-09-09T06:35:30;11.75;;;11.15;;
6580;SDS011;3324;50.796;7.228;2022-09-09T06:37:56;11.70;;;11.10;;
6580;SDS011;3324;50.796;7.228;2022-09-09T06:40:23;11.73;;;11.13;;
6580;SDS011;3324;50.796;7.228;2022-09-09T06:42:49;11.90;;;11.30;;
6580;SDS011;3324;50.796;7.228;2022-09-09T06:45:15;12.00;;;11.40;;
6580;SDS011;3324;50.796;7.228;2022-09-09T06:47:40;12.68;;;11.77;;
6580;SDS011;3324;50.796;7.228;2022-09-09T06:50:07;12.40;;;11.70;;
6580;SDS011;3324;50.796;7.228;2022-09-09T06:52:33;12.10;;;11.40;;
6580;SDS011;3324;50.796;7.228;2022-09-09T06:54:59;12.20;;;11.50;;
6580;SDS011;3324;50.796;7.228;2022-09-09T06:57:24;12.30;;;11.60;;
6580;SDS011;3324;50.796;7.228;2022-09-09T06:59:50;12.70;;;11.80;;
6580;SDS011;3324;50.796;7.228;2022-09-09T07:02:15;12.40;;;11.70;;
6580;SDS011;3324;50.796;7.228;2022-09-09T07:04:41;12.30;;;11.60;;
6580;SDS011;3324;50.796;7.228;2022-09-09T07:07:07;11.40;;;10.90;;
6580;SDS011;3324;50.796;7.228;2022-09-09T07:09:34;11.05;;;10.55;;
6580;SDS011;3324;50.796;7.228;2022-09-09T07:12:00;11.50;;;10.90;;
6580;SDS011;3324;50.796;7.228;2022-09-09T07:14:26;12.40;;;11.60;;
6580;SDS011;3324;50.796;7.228;2022-09-09T07:16:52;11.50;;;11.00;;
6580;SDS011;3324;50.796;7.228;2022-09-09T07:19:18;11.30;;;10.80;;
6580;SDS011;3324;50.796;7.228;2022-09-09T07:21:43;11.50;;;10.90;;
6580;SDS011;3324;50.796;7.228;2022-09-09T07:24:10;12.30;;;11.50;;
6580;SDS011;3324;50.796;7.228;2022-09-09T07:26:36;12.30;;;11.50;;
6580;SDS011;3324;50.796;7.228;2022-09-09T07:29:03;11.55;;;10.95;;
6580;SDS011;3324;50.796;7.228;2022-09-09T07:31:30;11.30;;;10.80;;
6580;SDS011;3324;50.796;7.228;2022-09-09T07:33:56;11.40;;;10.90;;
6580;SDS011;3324;50.796;7.228;2022-09-09T07:36:24;11.50;;;10.90;;
6580;SDS011;3324;50.796;7.228;2022-09-09T07:38:52;12.30;;;11.50;;
6580;SDS011;3324;50.796;7.228;2022-09-09T07:41:24;11.40;;;10.90;;
6580;SDS011;3324;50.796;7.228;2022-09-09T07:44:11;11.20;;;10.70;;
6580;SDS011;3324;50.796;7.228;2022-09-09T07:46:38;12.20;;;11.40;;
6580;SDS011;3324;50.796;7.228;2022-09-09T07:49:04;11.20;;;10.60;;
6580;SDS011;3324;50.796;7.228;2022-09-09T07:51:31;11.30;;;10.70;;
6580;SDS011;3324;50.796;7.228;2022-09-09T07:54:01;11.30;;;10.80;;
6580;SDS011;3324;50.796;7.228;2022-09-09T07:56:29;10.67;;;10.27;;
6580;SDS011;3324;50.796;7.228;2022-09-09T07:58:56;11.00;;;10.40;;
6580;SDS011;3324;50.796;7.228;2022-09-09T08:01:30;10.20;;;9.90;;
6580;SDS011;3324;50.796;7.228;2022-09-09T08:04:00;10.60;;;10.20;;
6580;SDS011;3324;50.796;7.228;2022-09-09T08:06:35;11.10;;;10.50;;
6580;SDS011;3324;50.796;7.228;2022-09-09T08:09:02;9.80;;;9.50;;
6580;SDS011;3324;50.796;7.228;2022-09-09T08:11:29;11.30;;;10.70;;
6580;SDS011;3324;50.796;7.228;2022-09-09T08:13:55;10.10;;;9.80;;
6580;SDS011;3324;50.796;7.228;2022-09-09T08:16:22;10.80;;;10.40;;
6580;SDS011;3324;50.796;7.228;2022-09-09T08:18:50;11.30;;;10.80;;
6580;SDS011;3324;50.796;7.228;2022-09-09T08:21:18;11.30;;;10.80;;
6580;SDS011;3324;50.796;7.228;2022-09-09T08:23:45;11.50;;;10.90;;
6580;SDS011;3324;50.796;7.228;2022-09-09T08:28:40;10.85;;;10.45;;
6580;SDS011;3324;50.796;7.228;2022-09-09T08:31:12;11.23;;;10.73;;
6580;SDS011;3324;50.796;7.228;2022-09-09T08:33:40;11.00;;;10.40;;
6580;SDS011;3324;50.796;7.228;2022-09-09T08:36:08;11.13;;;10.53;;
6580;SDS011;3324;50.796;7.228;2022-09-09T08:38:35;10.90;;;10.50;;
6580;SDS011;3324;50.796;7.228;2022-09-09T08:46:31;11.40;;;10.80;;
6580;SDS011;3324;50.796;7.228;2022-09-09T08:52:02;11.30;;;10.80;;
6580;SDS011;3324;50.796;7.228;2022-09-09T08:54:35;11.70;;;11.00;;
6580;SDS011;3324;50.796;7.228;2022-09-09T08:57:01;10.80;;;10.40;;
6580;SDS011;3324;50.796;7.228;2022-09-09T08:59:32;11.30;;;10.80;;
6580;SDS011;3324;50.796;7.228;2022-09-09T09:02:08;11.80;;;11.10;;
6580;SDS011;3324;50.796;7.228;2022-09-09T09:12:55;11.80;;;11.10;;
6580;SDS011;3324;50.796;7.228;2022-09-09T09:15:23;10.50;;;10.10;;
6580;SDS011;3324;50.796;7.228;2022-09-09T09:17:51;11.00;;;10.40;;
6580;SDS011;3324;50.796;7.228;2022-09-09T09:20:18;10.50;;;10.10;;
6580;SDS011;3324;50.796;7.228;2022-09-09T09:22:55;11.20;;;10.70;;
6580;SDS011;3324;50.796;7.228;2022-09-09T09:25:29;11.20;;;10.70;;
6580;SDS011;3324;50.796;7.228;2022-09-09T09:30:36;10.80;;;10.40;;
6580;SDS011;3324;50.796;7.228;2022-09-09T09:35:51;10.60;;;10.20;;
6580;SDS011;3324;50.796;7.228;2022-09-09T09:38:25;11.00;;;10.60;;
6580;SDS011;3324;50.796;7.228;2022-09-09T09:40:53;11.30;;;10.70;;
6580;SDS011;3324;50.796;7.228;2022-09-09T09:43:26;10.65;;;10.25;;
6580;SDS011;3324;50.796;7.228;2022-09-09T09:45:59;10.10;;;9.80;;
6580;SDS011;3324;50.796;7.228;2022-09-09T09:48:28;9.70;;;9.40;;
6580;SDS011;3324;50.796;7.228;2022-09-09T09:50:54;11.10;;;10.50;;
6580;SDS011;3324;50.796;7.228;2022-09-09T09:55:57;11.50;;;10.80;;
6580;SDS011;3324;50.796;7.228;2022-09-09T09:58:25;11.05;;;10.55;;
6580;SDS011;3324;50.796;7.228;2022-09-09T10:00:55;11.60;;;11.00;;
6580;SDS011;3324;50.796;7.228;2022-09-09T10:03:23;12.33;;;11.53;;
6580;SDS011;3324;50.796;7.228;2022-09-09T10:05:51;12.80;;;11.90;;
6580;SDS011;3324;50.796;7.228;2022-09-09T10:08:17;12.30;;;11.50;;
6580;SDS011;3324;50.796;7.228;2022-09-09T10:18:58;12.40;;;11.60;;
6580;SDS011;3324;50.796;7.228;2022-09-09T10:24:22;11.60;;;10.90;;
6580;SDS011;3324;50.796;7.228;2022-09-09T10:26:55;10.80;;;10.40;;
6580;SDS011;3324;50.796;7.228;2022-09-09T10:52:15;10.60;;;10.20;;
6580;SDS011;3324;50.796;7.228;2022-09-09T10:57:41;11.02;;;10.43;;
6580;SDS011;3324;50.796;7.228;2022-09-09T11:00:19;10.90;;;10.50;;
6580;SDS011;3324;50.796;7.228;2022-09-09T11:02:56;10.90;;;10.50;;
6580;SDS011;3324;50.796;7.228;2022-09-09T11:07:55;11.48;;;10.77;;
6580;SDS011;3324;50.796;7.228;2022-09-09T11:16:24;11.98;;;11.27;;
6580;SDS011;3324;50.796;7.228;2022-09-09T11:18:51;11.30;;;10.60;;
6580;SDS011;3324;50.796;7.228;2022-09-09T11:21:23;11.30;;;10.80;;
6580;SDS011;3324;50.796;7.228;2022-09-09T11:23:55;12.40;;;11.60;;
6580;SDS011;3324;50.796;7.228;2022-09-09T11:26:28;11.53;;;10.93;;
6580;SDS011;3324;50.796;7.228;2022-09-09T11:29:07;11.60;;;11.00;;
6580;SDS011;3324;50.796;7.228;2022-09-09T11:42:44;13.40;;;12.40;;
6580;SDS011;3324;50.796;7.228;2022-09-09T11:45:23;12.60;;;11.80;;
6580;SDS011;3324;50.796;7.228;2022-09-09T11:47:54;12.50;;;11.80;;
6580;SDS011;3324;50.796;7.228;2022-09-09T11:52:48;12.50;;;11.80;;
6580;SDS011;3324;50.796;7.228;2022-09-09T11:58:01;11.80;;;11.20;;
6580;SDS011;3324;50.796;7.228;2022-09-09T12:08:50;11.60;;;11.00;;
6580;SDS011;3324;50.796;7.228;2022-09-09T12:11:27;12.30;;;11.60;;
6580;SDS011;3324;50.796;7.228;2022-09-09T12:13:55;11.50;;;10.90;;
6580;SDS011;3324;50.796;7.228;2022-09-09T12:16:29;11.70;;;11.10;;
6580;SDS011;3324;50.796;7.228;2022-09-09T12:21:51;12.25;;;11.45;;
6580;SDS011;3324;50.796;7.228;2022-09-09T12:24:30;12.10;;;11.40;;
6580;SDS011;3324;50.796;7.228;2022-09-09T12:27:35;12.60;;;11.90;;
6580;SDS011;3324;50.796;7.228;2022-09-09T12:30:12;11.50;;;10.90;;
6580;SDS011;3324;50.796;7.228;2022-09-09T12:32:41;12.50;;;11.80;;
6580;SDS011;3324;50.796;7.228;2022-09-09T12:35:11;12.10;;;11.40;;
6580;SDS011;3324;50.796;7.228;2022-09-09T12:37:50;12.90;;;12.00;;
6580;SDS011;3324;50.796;7.228;2022-09-09T12:43:00;12.10;;;11.40;;
6580;SDS011;3324;50.796;7.228;2022-09-09T12:45:28;12.60;;;11.90;;
6580;SDS011;3324;50.796;7.228;2022-09-09T12:48:00;12.30;;;11.60;;
6580;SDS011;3324;50.796;7.228;2022-09-09T12:50:30;13.00;;;12.10;;
6580;SDS011;3324;50.796;7.228;2022-09-09T12:53:08;13.60;;;12.70;;
6580;SDS011;3324;50.796;7.228;2022-09-09T12:55:48;14.30;;;13.20;;
6580;SDS011;3324;50.796;7.228;2022-09-09T12:58:36;14.40;;;13.40;;
6580;SDS011;3324;50.796;7.228;2022-09-09T13:01:03;14.40;;;13.40;;
6580;SDS011;3324;50.796;7.228;2022-09-09T13:03:30;14.30;;;13.20;;
6580;SDS011;3324;50.796;7.228;2022-09-09T13:05:58;14.30;;;13.20;;
6580;SDS011;3324;50.796;7.228;2022-09-09T13:08:36;13.20;;;12.40;;
6580;SDS011;3324;50.796;7.228;2022-09-09T13:11:03;15.10;;;13.90;;
6580;SDS011;3324;50.796;7.228;2022-09-09T13:13:35;13.10;;;12.30;;
6580;SDS011;3324;50.796;7.228;2022-09-09T13:16:03;13.20;;;12.40;;
6580;SDS011;3324;50.796;7.228;2022-09-09T13:18:36;12.50;;;11.80;;
6580;SDS011;3324;50.796;7.228;2022-09-09T13:21:07;13.40;;;12.40;;
6580;SDS011;3324;50.796;7.228;2022-09-09T13:23:33;14.80;;;13.30;;
6580;SDS011;3324;50.796;7.228;2022-09-09T13:26:02;12.80;;;12.00;;
6580;SDS011;3324;50.796;7.228;2022-09-09T13:28:52;12.50;;;11.80;;
6580;SDS011;3324;50.796;7.228;2022-09-09T13:31:20;13.00;;;12.20;;
6580;SDS011;3324;50.796;7.228;2022-09-09T13:33:53;13.40;;;12.60;;
6580;SDS011;3324;50.796;7.228;2022-09-09T13:36:29;13.80;;;12.90;;
6580;SDS011;3324;50.796;7.228;2022-09-09T13:38:57;13.10;;;12.30;;
6580;SDS011;3324;50.796;7.228;2022-09-09T13:41:34;12.70;;;12.00;;
6580;SDS011;3324;50.796;7.228;2022-09-09T13:44:02;13.03;;;12.23;;
6580;SDS011;3324;50.796;7.228;2022-09-09T13:46:35;11.90;;;11.30;;
6580;SDS011;3324;50.796;7.228;2022-09-09T13:49:02;13.20;;;12.40;;
6580;SDS011;3324;50.796;7.228;2022-09-09T13:54:00;13.40;;;12.60;;
6580;SDS011;3324;50.796;7.228;2022-09-09T13:56:26;12.90;;;12.10;;
6580;SDS011;3324;50.796;7.228;2022-09-09T13:58:52;13.60;;;12.70;;
6580;SDS011;3324;50.796;7.228;2022-09-09T14:01:17;13.70;;;12.80;;
6580;SDS011;3324;50.796;7.228;2022-09-09T14:03:43;16.20;;;14.50;;
6580;SDS011;3324;50.796;7.228;2022-09-09T14:06:09;14.80;;;13.80;;
6580;SDS011;3324;50.796;7.228;2022-09-09T14:08:36;13.30;;;12.50;;
6580;SDS011;3324;50.796;7.228;2022-09-09T14:11:04;13.30;;;12.50;;
6580;SDS011;3324;50.796;7.228;2022-09-09T14:13:30;15.10;;;13.90;;
6580;SDS011;3324;50.796;7.228;2022-09-09T14:15:57;14.03;;;12.93;;
6580;SDS011;3324;50.796;7.228;2022-09-09T14:18:22;13.80;;;12.90;;
6580;SDS011;3324;50.796;7.228;2022-09-09T14:20:50;15.85;;;14.55;;
6580;SDS011;3324;50.796;7.228;2022-09-09T14:23:16;12.80;;;12.00;;
6580;SDS011;3324;50.796;7.228;2022-09-09T14:25:45;12.60;;;11.90;;
6580;SDS011;3324;50.796;7.228;2022-09-09T14:28:11;12.10;;;11.40;;
6580;SDS011;3324;50.796;7.228;2022-09-09T14:30:41;13.45;;;12.65;;
6580;SDS011;3324;50.796;7.228;2022-09-09T14:33:09;13.10;;;12.20;;
6580;SDS011;3324;50.796;7.228;2022-09-09T14:35:36;12.80;;;12.10;;
6580;SDS011;3324;50.796;7.228;2022-09-09T14:38:03;12.40;;;11.70;;
6580;SDS011;3324;50.796;7.228;2022-09-09T14:40:29;12.20;;;11.50;;
6580;SDS011;3324;50.796;7.228;2022-09-09T14:42:55;12.50;;;11.80;;
6580;SDS011;3324;50.796;7.228;2022-09-09T14:45:22;14.40;;;13.30;;
6580;SDS011;3324;50.796;7.228;2022-09-09T14:47:49;13.10;;;12.30;;
6580;SDS011;3324;50.796;7.228;2022-09-09T14:50:16;12.30;;;11.60;;
6580;SDS011;3324;50.796;7.228;2022-09-09T14:52:43;12.45;;;11.75;;
6580;SDS011;3324;50.796;7.228;2022-09-09T14:55:09;12.20;;;11.50;;
6580;SDS011;3324;50.796;7.228;2022-09-09T14:57:34;12.30;;;11.50;;
6580;SDS011;3324;50.796;7.228;2022-09-09T15:00:01;12.70;;;12.00;;
6580;SDS011;3324;50.796;7.228;2022-09-09T15:02:30;12.67;;;11.80;;
6580;SDS011;3324;50.796;7.228;2022-09-09T15:04:56;12.20;;;11.50;;
6580;SDS011;3324;50.796;7.228;2022-09-09T15:07:23;11.67;;;11.07;;
6580;SDS011;3324;50.796;7.228;2022-09-09T15:09:49;11.90;;;11.30;;
6580;SDS011;3324;50.796;7.228;2022-09-09T15:12:15;12.40;;;11.70;;
6580;SDS011;3324;50.796;7.228;2022-09-09T15:14:43;12.60;;;11.70;;
6580;SDS011;3324;50.796;7.228;2022-09-09T15:17:09;11.23;;;10.70;;
6580;SDS011;3324;50.796;7.228;2022-09-09T15:19:35;11.90;;;11.30;;
6580;SDS011;3324;50.796;7.228;2022-09-09T15:22:01;11.50;;;10.90;;
6580;SDS011;3324;50.796;7.228;2022-09-09T15:24:28;11.80;;;11.20;;
6580;SDS011;3324;50.796;7.228;2022-09-09T15:26:53;11.60;;;11.00;;
6580;SDS011;3324;50.796;7.228;2022-09-09T15:29:19;12.30;;;11.50;;
6580;SDS011;3324;50.796;7.228;2022-09-09T15:31:45;12.50;;;11.80;;
6580;SDS011;3324;50.796;7.228;2022-09-09T15:34:11;11.85;;;11.25;;
6580;SDS011;3324;50.796;7.228;2022-09-09T15:36:42;11.50;;;10.90;;
6580;SDS011;3324;50.796;7.228;2022-09-09T15:39:12;11.60;;;11.00;;
6580;SDS011;3324;50.796;7.228;2022-09-09T15:41:41;11.20;;;10.70;;
6580;SDS011;3324;50.796;7.228;2022-09-09T15:44:07;10.60;;;10.10;;
6580;SDS011;3324;50.796;7.228;2022-09-09T15:46:36;11.10;;;10.60;;
6580;SDS011;3324;50.796;7.228;2022-09-09T15:49:05;12.30;;;11.50;;
6580;SDS011;3324;50.796;7.228;2022-09-09T15:51:45;11.80;;;11.20;;
6580;SDS011;3324;50.796;7.228;2022-09-09T15:54:13;12.10;;;11.30;;
6580;SDS011;3324;50.796;7.228;2022-09-09T15:56:42;12.80;;;11.90;;
6580;SDS011;3324;50.796;7.228;2022-09-09T15:59:08;14.80;;;13.30;;
6580;SDS011;3324;50.796;7.228;2022-09-09T16:01:33;12.60;;;11.80;;
6580;SDS011;3324;50.796;7.228;2022-09-09T16:03:59;13.40;;;12.50;;
6580;SDS011;3324;50.796;7.228;2022-09-09T16:06:25;14.10;;;13.20;;
6580;SDS011;3324;50.796;7.228;2022-09-09T16:08:53;14.00;;;13.10;;
6580;SDS011;3324;50.796;7.228;2022-09-09T16:11:23;14.30;;;13.30;;
6580;SDS011;3324;50.796;7.228;2022-09-09T16:13:54;15.60;;;14.30;;
6580;SDS011;3324;50.796;7.228;2022-09-09T16:16:21;15.20;;;14.00;;
6580;SDS011;3324;50.796;7.228;2022-09-09T16:18:56;14.83;;;13.83;;
6580;SDS011;3324;50.796;7.228;2022-09-09T16:21:24;14.97;;;13.97;;
6580;SDS011;3324;50.796;7.228;2022-09-09T16:23:54;15.47;;;14.37;;
6580;SDS011;3324;50.796;7.228;2022-09-09T16:26:22;14.70;;;13.70;;
6580;SDS011;3324;50.796;7.228;2022-09-09T16:28:48;15.60;;;14.30;;
6580;SDS011;3324;50.796;7.228;2022-09-09T16:31:18;16.63;;;14.93;;
6580;SDS011;3324;50.796;7.228;2022-09-09T16:33:46;14.60;;;13.60;;
6580;SDS011;3324;50.796;7.228;2022-09-09T16:36:14;14.35;;;13.35;;
6580;SDS011;3324;50.796;7.228;2022-09-09T16:38:41;15.40;;;14.30;;
6580;SDS011;3324;50.796;7.228;2022-09-09T16:41:08;16.20;;;15.00;;
6580;SDS011;3324;50.796;7.228;2022-09-09T16:43:35;14.50;;;13.50;;
6580;SDS011;3324;50.796;7.228;2022-09-09T16:46:02;14.60;;;13.60;;
6580;SDS011;3324;50.796;7.228;2022-09-09T16:48:36;16.07;;;14.77;;
6580;SDS011;3324;50.796;7.228;2022-09-09T16:51:02;15.03;;;14.03;;
6580;SDS011;3324;50.796;7.228;2022-09-09T16:53:30;14.15;;;13.20;;
6580;SDS011;3324;50.796;7.228;2022-09-09T16:55:57;13.90;;;13.00;;
6580;SDS011;3324;50.796;7.228;2022-09-09T16:58:22;14.37;;;13.47;;
6580;SDS011;3324;50.796;7.228;2022-09-09T17:00:48;15.00;;;13.80;;
6580;SDS011;3324;50.796;7.228;2022-09-09T17:03:16;13.30;;;12.50;;
6580;SDS011;3324;50.796;7.228;2022-09-09T17:05:41;14.50;;;13.40;;
6580;SDS011;3324;50.796;7.228;2022-09-09T17:08:07;13.17;;;12.37;;
6580;SDS011;3324;50.796;7.228;2022-09-09T17:10:33;12.50;;;11.80;;
6580;SDS011;3324;50.796;7.228;2022-09-09T17:12:58;13.00;;;12.10;;
6580;SDS011;3324;50.796;7.228;2022-09-09T17:15:24;12.60;;;11.90;;
6580;SDS011;3324;50.796;7.228;2022-09-09T17:17:49;11.70;;;11.10;;